Time;durP1;ratioP1;P1;durP2;ratioP2;P2;SDS_P1;SDS_P2;PMS_P1;PMS_P2;Temp;Humidity;BMP_temperature;BMP_pressure;BME280_temperature;BME280_humidity;BME280_pressure;Samples;Min_cycle;Max_cycle;Signal;HPM_P1;HPM_P2
2022/08/26 00:00:27;;;;;;;11.37;10.57;;;;;;;;;;6215259;23;20405;-92
2022/08/26 00:02:53;;;;;;;10.43;9.73;;;;;;;;;;6214632;23;20732;-94
2022/08/26 00:05:19;;;;;;;11.38;10.57;;;;;;;;;;6214785;23;20439;-92
2022/08/26 00:07:45;;;;;;;11.35;10.60;;;;;;;;;;6216595;23;20386;-93
2022/08/26 00:10:11;;;;;;;11.52;10.73;;;;;;;;;;6219623;23;20434;-94
2022/08/26 00:12:37;;;;;;;11.40;10.60;;;;;;;;;;6220013;23;20458;-94
2022/08/26 00:15:05;;;;;;;12.20;11.30;;;;;;;;;;6213605;23;20375;-94
2022/08/26 00:17:31;;;;;;;12.07;11.07;;;;;;;;;;6216122;23;20748;-95
2022/08/26 00:19:56;;;;;;;11.70;10.95;;;;;;;;;;6211233;23;20371;-93
2022/08/26 00:22:22;;;;;;;11.63;10.83;;;;;;;;;;6214390;23;20445;-93
2022/08/26 00:24:48;;;;;;;11.50;10.80;;;;;;;;;;6212667;23;20677;-93
2022/08/26 00:27:14;;;;;;;12.02;11.10;;;;;;;;;;6215015;23;20379;-94
2022/08/26 00:29:40;;;;;;;11.50;10.60;;;;;;;;;;6214141;23;20347;-93
2022/08/26 00:32:06;;;;;;;12.00;11.10;;;;;;;;;;6213105;23;20360;-93
2022/08/26 00:34:33;;;;;;;11.90;11.15;;;;;;;;;;6211724;23;20364;-94
2022/08/26 00:36:59;;;;;;;11.65;10.48;;;;;;;;;;6218260;23;20368;-93
2022/08/26 00:39:25;;;;;;;11.77;10.77;;;;;;;;;;6216031;23;20450;-94
2022/08/26 00:41:51;;;;;;;11.75;11.00;;;;;;;;;;6210837;23;20367;-94
2022/08/26 00:44:18;;;;;;;12.10;11.00;;;;;;;;;;6208949;23;20360;-93
2022/08/26 00:46:45;;;;;;;11.37;10.67;;;;;;;;;;6211204;23;20383;-94
2022/08/26 00:49:38;;;;;;;11.77;10.88;;;;;;;;;;6208391;23;20686;-94
2022/08/26 00:52:06;;;;;;;10.95;10.13;;;;;;;;;;6207312;23;20406;-94
2022/08/26 00:54:34;;;;;;;11.40;10.50;;;;;;;;;;6208965;23;20409;-94
2022/08/26 00:57:01;;;;;;;11.70;10.90;;;;;;;;;;6212576;23;20732;-93
2022/08/26 00:59:28;;;;;;;11.65;10.55;;;;;;;;;;6208645;23;20823;-93
2022/08/26 01:01:55;;;;;;;11.52;10.65;;;;;;;;;;6209208;23;20735;-94
2022/08/26 01:04:23;;;;;;;12.35;11.40;;;;;;;;;;6208437;23;20403;-94
2022/08/26 01:06:51;;;;;;;11.82;11.02;;;;;;;;;;6212300;23;20371;-93
2022/08/26 01:09:17;;;;;;;11.87;11.03;;;;;;;;;;6209243;23;20440;-94
2022/08/26 01:11:44;;;;;;;12.07;11.00;;;;;;;;;;6210285;23;20804;-94
2022/08/26 01:14:11;;;;;;;11.82;10.93;;;;;;;;;;6208523;23;20688;-95
2022/08/26 01:16:37;;;;;;;11.63;10.80;;;;;;;;;;6210852;23;20371;-94
2022/08/26 01:19:09;;;;;;;11.57;10.73;;;;;;;;;;6209048;23;20368;-94
2022/08/26 01:21:38;;;;;;;11.55;10.75;;;;;;;;;;6210678;23;20355;-93
2022/08/26 01:24:05;;;;;;;11.70;10.80;;;;;;;;;;6211357;23;20666;-94
2022/08/26 01:26:39;;;;;;;12.23;11.32;;;;;;;;;;6211018;23;20348;-94
2022/08/26 01:29:05;;;;;;;12.30;11.43;;;;;;;;;;6214337;23;20820;-94
2022/08/26 01:31:36;;;;;;;12.57;11.67;;;;;;;;;;6213787;23;20364;-93
2022/08/26 01:34:13;;;;;;;12.15;11.25;;;;;;;;;;6213670;23;20359;-95
2022/08/26 01:36:39;;;;;;;12.13;11.23;;;;;;;;;;6223458;23;20348;-93
2022/08/26 01:39:07;;;;;;;12.77;11.77;;;;;;;;;;6213870;23;20362;-94
2022/08/26 01:41:33;;;;;;;11.87;11.07;;;;;;;;;;6216598;23;20372;-94
2022/08/26 01:44:00;;;;;;;12.23;11.13;;;;;;;;;;6217581;23;20347;-94
2022/08/26 01:46:27;;;;;;;11.60;10.80;;;;;;;;;;6213058;23;20359;-94
2022/08/26 01:48:55;;;;;;;12.00;11.10;;;;;;;;;;6211280;23;20435;-94
2022/08/26 01:51:22;;;;;;;12.55;11.55;;;;;;;;;;6212893;23;20415;-95
2022/08/26 01:53:48;;;;;;;12.30;11.50;;;;;;;;;;6212158;23;20363;-94
2022/08/26 01:56:14;;;;;;;14.00;12.80;;;;;;;;;;6212774;23;20676;-93
2022/08/26 01:58:58;;;;;;;12.40;11.20;;;;;;;;;;6212221;23;20363;-94
2022/08/26 02:01:25;;;;;;;12.55;11.70;;;;;;;;;;6207492;23;20348;-94
2022/08/26 02:03:55;;;;;;;13.23;12.27;;;;;;;;;;6210134;23;20727;-94
2022/08/26 02:06:23;;;;;;;12.77;11.82;;;;;;;;;;6213026;23;20407;-93
2022/08/26 02:08:51;;;;;;;12.73;11.70;;;;;;;;;;6210091;23;20359;-91
2022/08/26 02:11:18;;;;;;;13.30;12.00;;;;;;;;;;6213942;23;20728;-93
2022/08/26 02:13:45;;;;;;;13.88;12.70;;;;;;;;;;6226279;23;20347;-93
2022/08/26 02:16:12;;;;;;;12.50;11.70;;;;;;;;;;6221341;23;20386;-93
2022/08/26 02:18:40;;;;;;;12.65;11.80;;;;;;;;;;6217211;23;20728;-93
2022/08/26 02:21:06;;;;;;;12.82;11.82;;;;;;;;;;6212871;23;20355;-92
2022/08/26 02:23:32;;;;;;;13.02;11.93;;;;;;;;;;6213378;23;20359;-93
2022/08/26 02:26:18;;;;;;;13.43;12.43;;;;;;;;;;6211058;23;20351;-94
2022/08/26 02:28:49;;;;;;;12.18;11.38;;;;;;;;;;6213212;23;20356;-93
2022/08/26 02:31:15;;;;;;;12.13;11.23;;;;;;;;;;6211830;23;20427;-92
2022/08/26 02:33:41;;;;;;;12.85;11.95;;;;;;;;;;6212719;23;20782;-93
2022/08/26 02:36:07;;;;;;;13.20;12.00;;;;;;;;;;6211325;23;20631;-93
2022/08/26 02:38:34;;;;;;;13.00;11.90;;;;;;;;;;6213177;23;20429;-93
2022/08/26 02:41:00;;;;;;;13.77;12.68;;;;;;;;;;6210792;23;20383;-94
2022/08/26 02:43:26;;;;;;;13.60;12.32;;;;;;;;;;6212288;23;20686;-93
2022/08/26 02:45:52;;;;;;;13.27;12.27;;;;;;;;;;6211088;23;20355;-94
2022/08/26 02:48:20;;;;;;;13.88;12.63;;;;;;;;;;6220064;23;20379;-93
2022/08/26 02:50:46;;;;;;;13.68;12.65;;;;;;;;;;6212356;23;20415;-93
2022/08/26 02:53:12;;;;;;;14.53;13.37;;;;;;;;;;6230901;23;20435;-93
2022/08/26 02:55:39;;;;;;;14.60;13.20;;;;;;;;;;6234432;23;20375;-93
2022/08/26 02:58:06;;;;;;;14.60;13.48;;;;;;;;;;6236830;23;20344;-93
2022/08/26 03:00:32;;;;;;;15.32;14.18;;;;;;;;;;6225111;23;20368;-93
2022/08/26 03:02:58;;;;;;;14.80;13.70;;;;;;;;;;6217234;23;20443;-93
2022/08/26 03:05:24;;;;;;;15.70;14.40;;;;;;;;;;6218526;23;20359;-91
2022/08/26 03:07:51;;;;;;;14.00;12.80;;;;;;;;;;6231270;23;20402;-93
2022/08/26 03:10:18;;;;;;;15.70;14.30;;;;;;;;;;6218037;23;20371;-93
2022/08/26 03:12:44;;;;;;;15.40;14.20;;;;;;;;;;6229715;23;20799;-93
2022/08/26 03:15:11;;;;;;;15.45;14.18;;;;;;;;;;6231502;23;20855;-93
2022/08/26 03:17:37;;;;;;;15.48;14.07;;;;;;;;;;6232040;23;20424;-93
2022/08/26 03:20:07;;;;;;;14.68;13.68;;;;;;;;;;6221779;23;20370;-93
2022/08/26 03:22:33;;;;;;;16.00;14.70;;;;;;;;;;6228998;23;20807;-93
2022/08/26 03:24:59;;;;;;;15.07;13.97;;;;;;;;;;6212495;23;20348;-93
2022/08/26 03:27:25;;;;;;;15.63;14.25;;;;;;;;;;6230560;23;20375;-93
2022/08/26 03:32:36;;;;;;;17.00;15.60;;;;;;;;;;6217676;23;20878;-93
2022/08/26 03:35:02;;;;;;;15.02;13.93;;;;;;;;;;6217182;23;20736;-93
2022/08/26 03:37:28;;;;;;;16.38;15.07;;;;;;;;;;6222403;23;20359;-93
2022/08/26 03:39:54;;;;;;;17.90;16.30;;;;;;;;;;6222850;23;20424;-93
2022/08/26 03:42:20;;;;;;;18.63;17.33;;;;;;;;;;6214281;23;20344;-94
2022/08/26 03:44:46;;;;;;;19.85;18.08;;;;;;;;;;6216578;23;20344;-93
2022/08/26 03:47:12;;;;;;;19.40;17.80;;;;;;;;;;6216565;23;20390;-93
2022/08/26 03:49:38;;;;;;;22.63;20.93;;;;;;;;;;6212464;23;20468;-93
2022/08/26 03:52:04;;;;;;;19.67;17.95;;;;;;;;;;6216306;23;20732;-92
2022/08/26 03:54:30;;;;;;;20.70;19.10;;;;;;;;;;6211367;23;20359;-93
2022/08/26 03:56:56;;;;;;;21.73;19.93;;;;;;;;;;6211981;23;20362;-92
2022/08/26 03:59:22;;;;;;;20.80;19.00;;;;;;;;;;6212920;23;20335;-91
2022/08/26 04:01:48;;;;;;;19.05;17.40;;;;;;;;;;6212064;23;20368;-94
2022/08/26 04:04:15;;;;;;;20.10;18.40;;;;;;;;;;6211187;23;20356;-93
2022/08/26 04:06:42;;;;;;;21.50;19.80;;;;;;;;;;6212502;23;20383;-94
2022/08/26 04:09:10;;;;;;;20.10;18.30;;;;;;;;;;6212158;23;20376;-93
2022/08/26 04:11:38;;;;;;;25.17;22.90;;;;;;;;;;6209864;23;20438;-93
2022/08/26 04:14:05;;;;;;;26.38;24.08;;;;;;;;;;6210750;23;20923;-92
2022/08/26 04:16:31;;;;;;;23.13;21.20;;;;;;;;;;6210953;23;20348;-93
2022/08/26 04:18:58;;;;;;;26.48;24.23;;;;;;;;;;6211535;23;20427;-94
2022/08/26 04:21:24;;;;;;;25.25;23.05;;;;;;;;;;6210308;23;20352;-94
2022/08/26 04:23:50;;;;;;;26.10;24.08;;;;;;;;;;6210720;23;20363;-93
2022/08/26 04:26:16;;;;;;;31.33;28.63;;;;;;;;;;6208779;23;20360;-93
2022/08/26 04:28:43;;;;;;;31.38;28.58;;;;;;;;;;6210311;23;20380;-93
2022/08/26 04:31:13;;;;;;;36.15;32.95;;;;;;;;;;6210035;23;20399;-89
2022/08/26 04:33:40;;;;;;;39.95;36.03;;;;;;;;;;6211617;23;20352;-91
2022/08/26 04:36:06;;;;;;;40.72;36.88;;;;;;;;;;6219794;23;20343;-90
2022/08/26 04:38:33;;;;;;;58.30;52.72;;;;;;;;;;6231759;23;20355;-90
2022/08/26 04:40:59;;;;;;;44.53;40.33;;;;;;;;;;6223081;23;20378;-90
2022/08/26 04:43:29;;;;;;;44.40;40.20;;;;;;;;;;6213165;23;20502;-90
2022/08/26 04:45:55;;;;;;;46.05;41.38;;;;;;;;;;6207302;23;20637;-90
2022/08/26 04:48:21;;;;;;;48.47;39.70;;;;;;;;;;6205749;23;20392;-91
2022/08/26 04:50:46;;;;;;;38.67;35.10;;;;;;;;;;6205657;23;20435;-90
2022/08/26 04:53:12;;;;;;;44.38;40.28;;;;;;;;;;6206944;23;20352;-90
2022/08/26 04:55:38;;;;;;;37.78;34.38;;;;;;;;;;6205105;23;20386;-90
2022/08/26 04:58:07;;;;;;;38.95;35.45;;;;;;;;;;6205444;23;20355;-90
2022/08/26 05:00:33;;;;;;;43.50;39.50;;;;;;;;;;6197858;23;20461;-88
2022/08/26 05:02:59;;;;;;;44.90;40.70;;;;;;;;;;6205799;23;20458;-90
2022/08/26 05:05:26;;;;;;;49.80;45.20;;;;;;;;;;6204659;23;20391;-90
2022/08/26 05:07:52;;;;;;;49.63;44.83;;;;;;;;;;6206443;23;20874;-91
2022/08/26 05:10:18;;;;;;;48.22;43.63;;;;;;;;;;6203301;23;20874;-91
2022/08/26 05:12:44;;;;;;;46.85;42.35;;;;;;;;;;6208330;23;20379;-91
2022/08/26 05:15:10;;;;;;;46.03;41.72;;;;;;;;;;6204155;23;20360;-90
2022/08/26 05:17:36;;;;;;;44.30;39.90;;;;;;;;;;6207584;23;20390;-91
2022/08/26 05:20:03;;;;;;;43.45;39.38;;;;;;;;;;6207323;23;20398;-90
2022/08/26 05:22:29;;;;;;;54.75;49.25;;;;;;;;;;6215601;23;20602;-89
2022/08/26 05:24:55;;;;;;;57.27;51.77;;;;;;;;;;6218224;23;20621;-88
2022/08/26 05:27:20;;;;;;;54.90;49.70;;;;;;;;;;6210876;23;20471;-90
2022/08/26 05:29:47;;;;;;;50.95;46.15;;;;;;;;;;6210471;23;20420;-89
2022/08/26 05:32:13;;;;;;;53.93;48.43;;;;;;;;;;6222032;23;20368;-88
2022/08/26 05:34:39;;;;;;;51.57;46.67;;;;;;;;;;6218217;23;20419;-90
2022/08/26 05:37:05;;;;;;;50.40;45.20;;;;;;;;;;6215706;23;20750;-91
2022/08/26 05:39:32;;;;;;;46.05;41.55;;;;;;;;;;6211264;23;20362;-90
2022/08/26 05:41:58;;;;;;;43.17;39.17;;;;;;;;;;6220584;23;20336;-89
2022/08/26 05:44:24;;;;;;;42.00;38.15;;;;;;;;;;6209262;23;20394;-89
2022/08/26 05:46:50;;;;;;;43.58;39.08;;;;;;;;;;6209749;23;20383;-89
2022/08/26 05:49:17;;;;;;;47.33;42.97;;;;;;;;;;6207457;23;20486;-88
2022/08/26 05:51:45;;;;;;;48.10;43.50;;;;;;;;;;6206136;23;20736;-87
2022/08/26 05:54:11;;;;;;;48.72;44.20;;;;;;;;;;6209402;23;20382;-90
2022/08/26 05:56:38;;;;;;;43.05;38.92;;;;;;;;;;6206952;23;20372;-89
2022/08/26 05:59:04;;;;;;;43.47;39.47;;;;;;;;;;6208664;23;20355;-89
2022/08/26 06:01:32;;;;;;;47.55;42.72;;;;;;;;;;6203549;23;20359;-88
2022/08/26 06:03:59;;;;;;;46.97;42.38;;;;;;;;;;6206977;23;20360;-88
2022/08/26 06:06:30;;;;;;;46.60;42.17;;;;;;;;;;6202504;23;20364;-88
2022/08/26 06:08:58;;;;;;;46.25;41.70;;;;;;;;;;6208914;23;20359;-88
2022/08/26 06:11:25;;;;;;;45.97;41.78;;;;;;;;;;6204757;23;20419;-88
2022/08/26 06:13:52;;;;;;;45.72;41.42;;;;;;;;;;6205044;23;20410;-90
2022/08/26 06:16:43;;;;;;;47.05;42.42;;;;;;;;;;6208697;23;20633;-94
2022/08/26 06:19:10;;;;;;;47.85;42.65;;;;;;;;;;6208421;23;20367;-89
2022/08/26 06:21:38;;;;;;;46.65;42.05;;;;;;;;;;6200991;23;20474;-89
2022/08/26 06:26:51;;;;;;;46.57;41.90;;;;;;;;;;6208657;23;21138;-91
2022/08/26 06:29:21;;;;;;;45.25;40.53;;;;;;;;;;6210424;23;20355;-90
2022/08/26 06:31:47;;;;;;;46.70;42.40;;;;;;;;;;6186864;23;20359;-89
2022/08/26 06:34:14;;;;;;;45.38;40.97;;;;;;;;;;6212324;23;20383;-89
2022/08/26 06:36:40;;;;;;;44.67;40.20;;;;;;;;;;6208395;23;20548;-90
2022/08/26 06:39:08;;;;;;;43.55;39.55;;;;;;;;;;6207722;23;20360;-90
2022/08/26 06:41:35;;;;;;;44.72;40.33;;;;;;;;;;6206554;23;20362;-91
2022/08/26 06:44:01;;;;;;;42.20;38.40;;;;;;;;;;6207822;23;20363;-90
2022/08/26 06:46:28;;;;;;;43.33;39.20;;;;;;;;;;6210085;23;20366;-89
2022/08/26 06:48:57;;;;;;;43.23;38.90;;;;;;;;;;6207784;23;20450;-87
2022/08/26 06:51:24;;;;;;;40.97;37.13;;;;;;;;;;6205469;23;20410;-90
2022/08/26 06:53:58;;;;;;;42.10;37.75;;;;;;;;;;6210051;23;20355;-89
2022/08/26 06:56:32;;;;;;;41.10;37.20;;;;;;;;;;6210609;23;20354;-90
2022/08/26 06:58:58;;;;;;;40.53;36.67;;;;;;;;;;6208992;23;20363;-90
2022/08/26 07:01:29;;;;;;;41.13;37.10;;;;;;;;;;6205701;23;20458;-90
2022/08/26 07:03:56;;;;;;;38.75;34.95;;;;;;;;;;6208572;23;20462;-90
2022/08/26 07:06:23;;;;;;;39.50;35.45;;;;;;;;;;6210834;23;20498;-89
2022/08/26 07:08:49;;;;;;;41.20;37.00;;;;;;;;;;6210897;23;20763;-89
2022/08/26 07:11:15;;;;;;;39.08;35.17;;;;;;;;;;6208892;23;20447;-90
2022/08/26 07:13:41;;;;;;;40.70;36.73;;;;;;;;;;6211830;23;20384;-89
2022/08/26 07:16:08;;;;;;;40.85;36.72;;;;;;;;;;6211951;23;20783;-89
2022/08/26 07:18:35;;;;;;;47.55;42.38;;;;;;;;;;6213066;23;20646;-89
2022/08/26 07:21:03;;;;;;;46.57;41.50;;;;;;;;;;6211502;23;20422;-90
2022/08/26 07:23:30;;;;;;;45.70;40.90;;;;;;;;;;6213217;23;20364;-89
2022/08/26 07:25:56;;;;;;;47.10;42.00;;;;;;;;;;6210486;23;20455;-89
2022/08/26 07:28:22;;;;;;;41.60;37.20;;;;;;;;;;6211517;23;20835;-90
2022/08/26 07:30:48;;;;;;;43.38;38.78;;;;;;;;;;6208137;23;20413;-90
2022/08/26 07:33:13;;;;;;;50.88;45.47;;;;;;;;;;6214016;23;20371;-90
2022/08/26 07:35:47;;;;;;;58.13;51.90;;;;;;;;;;6211624;23;20359;-90
2022/08/26 07:38:13;;;;;;;58.10;51.63;;;;;;;;;;6215337;23;20348;-89
2022/08/26 07:40:39;;;;;;;54.70;49.10;;;;;;;;;;6206293;23;20651;-88
2022/08/26 07:43:06;;;;;;;53.70;48.00;;;;;;;;;;6210401;23;20438;-88
2022/08/26 07:45:32;;;;;;;53.80;48.30;;;;;;;;;;6207456;23;20360;-87
2022/08/26 07:47:58;;;;;;;52.13;46.83;;;;;;;;;;6208248;23;20376;-89
2022/08/26 07:50:24;;;;;;;53.28;47.78;;;;;;;;;;6206541;23;20852;-89
2022/08/26 07:52:50;;;;;;;52.28;46.88;;;;;;;;;;6206693;23;20348;-89
2022/08/26 07:55:16;;;;;;;56.93;50.63;;;;;;;;;;6207716;23;20378;-90
2022/08/26 07:57:42;;;;;;;61.25;54.55;;;;;;;;;;6210758;23;20370;-90
2022/08/26 08:00:09;;;;;;;65.38;57.17;;;;;;;;;;6202099;23;20399;-89
2022/08/26 08:02:35;;;;;;;63.78;56.80;;;;;;;;;;6206740;23;20348;-89
2022/08/26 08:05:02;;;;;;;63.40;56.80;;;;;;;;;;6207771;23;20478;-88
2022/08/26 08:07:28;;;;;;;67.20;60.22;;;;;;;;;;6207054;23;20459;-87
2022/08/26 08:09:54;;;;;;;67.03;60.10;;;;;;;;;;6208284;23;20348;-89
2022/08/26 08:12:20;;;;;;;69.30;62.25;;;;;;;;;;6209430;23;20367;-89
2022/08/26 08:14:47;;;;;;;62.15;55.75;;;;;;;;;;6210220;23;20832;-90
2022/08/26 08:17:13;;;;;;;58.45;52.95;;;;;;;;;;6208643;23;20366;-89
2022/08/26 08:19:40;;;;;;;64.57;58.38;;;;;;;;;;6211732;23;20352;-89
2022/08/26 08:22:06;;;;;;;70.28;63.47;;;;;;;;;;6206858;23;20364;-89
2022/08/26 08:24:33;;;;;;;73.25;66.13;;;;;;;;;;6209582;23;20348;-90
2022/08/26 08:27:00;;;;;;;69.68;63.08;;;;;;;;;;6212090;23;20382;-89
2022/08/26 08:29:29;;;;;;;71.13;64.13;;;;;;;;;;6219750;23;20374;-89
2022/08/26 08:31:56;;;;;;;71.10;64.40;;;;;;;;;;6227166;23;20394;-88
2022/08/26 08:34:23;;;;;;;70.00;63.45;;;;;;;;;;6231075;23;20386;-88
2022/08/26 08:36:49;;;;;;;68.68;61.97;;;;;;;;;;6229343;23;20352;-90
2022/08/26 08:39:16;;;;;;;68.47;61.88;;;;;;;;;;6225978;23;20379;-89
2022/08/26 08:42:05;;;;;;;69.80;62.80;;;;;;;;;;6219306;23;20348;-91
2022/08/26 08:44:35;;;;;;;72.30;65.40;;;;;;;;;;6208255;23;20363;-90
2022/08/26 08:47:03;;;;;;;74.20;66.70;;;;;;;;;;6220406;23;20372;-88
2022/08/26 08:49:33;;;;;;;79.40;71.18;;;;;;;;;;6224925;23;20445;-87
2022/08/26 08:52:40;;;;;;;76.18;68.28;;;;;;;;;;6226347;23;20364;-89
2022/08/26 08:55:15;;;;;;;73.60;66.40;;;;;;;;;;6139460;23;20378;-93
2022/08/26 08:57:44;;;;;;;72.22;65.18;;;;;;;;;;6165936;23;20367;-90
2022/08/26 09:01:03;;;;;;;71.13;64.32;;;;;;;;;;6161815;23;20656;-93
2022/08/26 09:03:38;;;;;;;62.67;56.47;;;;;;;;;;6164319;23;20367;-92
2022/08/26 09:06:16;;;;;;;58.90;53.10;;;;;;;;;;6223556;23;20360;-92
2022/08/26 09:08:50;;;;;;;56.80;51.13;;;;;;;;;;6223797;23;20375;-94
2022/08/26 09:11:36;;;;;;;56.70;51.10;;;;;;;;;;6222042;23;20377;-93
2022/08/26 09:14:08;;;;;;;50.28;45.47;;;;;;;;;;6224838;23;20366;-91
2022/08/26 09:16:34;;;;;;;52.33;47.13;;;;;;;;;;6226213;23;20367;-91
2022/08/26 09:19:22;;;;;;;47.40;42.80;;;;;;;;;;6221961;23;20375;-92
2022/08/26 09:21:56;;;;;;;40.45;36.25;;;;;;;;;;6224529;23;20350;-93
2022/08/26 09:24:22;;;;;;;37.47;33.97;;;;;;;;;;6227771;23;20359;-90
2022/08/26 09:26:51;;;;;;;37.65;34.08;;;;;;;;;;6225478;23;20363;-92
2022/08/26 09:29:28;;;;;;;29.40;26.80;;;;;;;;;;6226378;23;20451;-90
2022/08/26 09:32:14;;;;;;;25.75;23.75;;;;;;;;;;6226949;23;20367;-93
2022/08/26 09:35:01;;;;;;;26.00;23.80;;;;;;;;;;6226468;23;20423;-93
2022/08/26 09:37:35;;;;;;;26.98;24.83;;;;;;;;;;6201173;23;20371;-89
2022/08/26 09:40:22;;;;;;;27.88;25.40;;;;;;;;;;6220948;23;20359;-92
2022/08/26 09:43:21;;;;;;;26.98;24.65;;;;;;;;;;6221206;23;20391;-92
2022/08/26 09:45:53;;;;;;;24.20;22.30;;;;;;;;;;6168961;23;20351;-92
2022/08/26 09:51:27;;;;;;;19.45;18.02;;;;;;;;;;6209382;23;20482;-93
2022/08/26 09:57:15;;;;;;;14.82;13.43;;;;;;;;;;6227795;23;20374;-91
2022/08/26 10:11:39;;;;;;;11.05;10.30;;;;;;;;;;6167876;23;20403;-88
2022/08/26 10:14:30;;;;;;;21.10;11.50;;;;;;;;;;6162946;23;20426;-92
2022/08/26 10:17:18;;;;;;;12.85;11.68;;;;;;;;;;6133980;23;20366;-88
2022/08/26 10:19:46;;;;;;;10.68;9.88;;;;;;;;;;6165106;23;20371;-91
2022/08/26 10:22:22;;;;;;;10.80;9.90;;;;;;;;;;6167485;23;20363;-90
2022/08/26 10:24:53;;;;;;;11.00;10.20;;;;;;;;;;6146476;23;20372;-92
2022/08/26 10:27:29;;;;;;;11.18;10.38;;;;;;;;;;6166853;23;20381;-88
2022/08/26 10:30:00;;;;;;;11.70;10.60;;;;;;;;;;6167895;23;20352;-89
2022/08/26 10:32:30;;;;;;;11.00;10.10;;;;;;;;;;6163065;23;20395;-91
2022/08/26 10:35:25;;;;;;;10.65;9.95;;;;;;;;;;6166608;23;20419;-89
2022/08/26 10:37:53;;;;;;;11.10;10.00;;;;;;;;;;6140500;23;20348;-90
2022/08/26 10:40:25;;;;;;;10.73;9.63;;;;;;;;;;6170136;23;20370;-90
2022/08/26 10:43:00;;;;;;;10.43;9.63;;;;;;;;;;6164634;23;20356;-92
2022/08/26 10:45:35;;;;;;;10.88;10.18;;;;;;;;;;6167001;23;20350;-90
2022/08/26 10:48:13;;;;;;;10.88;10.18;;;;;;;;;;6141717;23;20387;-93
2022/08/26 10:50:41;;;;;;;10.93;10.02;;;;;;;;;;6139378;23;20687;-90
2022/08/26 10:53:27;;;;;;;10.20;9.40;;;;;;;;;;6141528;23;20835;-91
2022/08/26 10:56:16;;;;;;;9.60;8.90;;;;;;;;;;6106162;23;20525;-88
2022/08/26 10:58:57;;;;;;;10.80;9.90;;;;;;;;;;6165342;23;20344;-92
2022/08/26 11:01:42;;;;;;;9.37;8.37;;;;;;;;;;6125050;23;20609;-89
2022/08/26 11:04:37;;;;;;;10.05;8.77;;;;;;;;;;6138785;23;21021;-91
2022/08/26 11:07:36;;;;;;;8.43;7.80;;;;;;;;;;6143176;23;20383;-91
2022/08/26 11:10:24;;;;;;;8.30;7.70;;;;;;;;;;6149746;23;20375;-93
2022/08/26 11:12:53;;;;;;;8.52;7.93;;;;;;;;;;6146766;23;20371;-91
2022/08/26 11:15:22;;;;;;;8.90;8.05;;;;;;;;;;6146017;23;20375;-92
2022/08/26 11:17:48;;;;;;;9.15;8.35;;;;;;;;;;6142685;23;20389;-86
2022/08/26 11:20:33;;;;;;;8.70;7.80;;;;;;;;;;6141188;23;20394;-92
2022/08/26 11:23:14;;;;;;;8.77;8.00;;;;;;;;;;6139975;23;20382;-92
2022/08/26 11:25:59;;;;;;;8.60;7.83;;;;;;;;;;6142117;23;20390;-91
2022/08/26 11:31:42;;;;;;;8.40;7.60;;;;;;;;;;6062040;23;20473;-91
2022/08/26 11:34:12;;;;;;;7.77;7.00;;;;;;;;;;6141198;23;20371;-90
2022/08/26 11:37:03;;;;;;;;;;;;;;;;;;;;;
2022/08/26 11:39:47;;;;;;;8.07;6.95;;;;;;;;;;6169720;23;20359;-92
2022/08/26 11:42:34;;;;;;;7.80;7.00;;;;;;;;;;6145554;23;20351;-92
2022/08/26 11:45:05;;;;;;;9.25;8.35;;;;;;;;;;6172390;23;20472;-91
2022/08/26 11:47:31;;;;;;;8.23;7.43;;;;;;;;;;6141925;23;20451;-92
2022/08/26 11:50:11;;;;;;;9.97;8.30;;;;;;;;;;6136623;23;20398;-91
2022/08/26 11:52:38;;;;;;;9.40;7.90;;;;;;;;;;6133378;23;20443;-88
2022/08/26 11:55:10;;;;;;;7.53;6.90;;;;;;;;;;6159780;23;20343;-88
2022/08/26 11:57:45;;;;;;;9.10;8.03;;;;;;;;;;6128826;23;20430;-89
2022/08/26 12:00:42;;;;;;;8.30;7.45;;;;;;;;;;6157801;23;20355;-94
2022/08/26 12:03:10;;;;;;;10.50;8.20;;;;;;;;;;6113842;23;20374;-89
2022/08/26 12:05:42;;;;;;;8.82;8.00;;;;;;;;;;6141382;23;20375;-91
2022/08/26 12:08:11;;;;;;;8.65;7.85;;;;;;;;;;6139816;23;20711;-92
2022/08/26 12:10:37;;;;;;;9.25;8.45;;;;;;;;;;6138718;23;20549;-92
2022/08/26 12:13:05;;;;;;;9.20;8.60;;;;;;;;;;6135548;23;20378;-93
2022/08/26 12:15:32;;;;;;;11.73;8.40;;;;;;;;;;6136107;23;20393;-93
2022/08/26 12:21:14;;;;;;;8.90;8.00;;;;;;;;;;6157477;23;20812;-92
2022/08/26 12:23:48;;;;;;;8.68;7.78;;;;;;;;;;6134598;23;20457;-92
2022/08/26 12:26:41;;;;;;;;;;;;;;;;;;;;;
2022/08/26 12:29:24;;;;;;;8.70;7.20;;;;;;;;;;6160687;23;20378;-92
2022/08/26 12:32:11;;;;;;;7.88;7.10;;;;;;;;;;6131617;23;20401;-92
2022/08/26 12:37:29;;;;;;;8.85;7.80;;;;;;;;;;6232487;22;20433;-91
2022/08/26 12:40:16;;;;;;;8.77;7.85;;;;;;;;;;6192422;23;20400;-92
2022/08/26 12:42:48;;;;;;;8.18;7.30;;;;;;;;;;6189810;23;20379;-90
2022/08/26 12:45:57;;;;;;;;;;;;;;;;;;;;;
2022/08/26 12:49:35;;;;;;;6.90;6.40;;;;;;;;;;6219359;23;20406;-94
2022/08/26 12:51:54;;;;;;;7.57;7.00;;;;;;;;;;6179453;23;20733;-94
2022/08/26 12:57:51;;;;;;;7.55;6.47;;;;;;;;;;6181524;23;20359;-94
2022/08/26 13:10:05;;;;;;;7.35;6.75;;;;;;;;;;6184046;23;20420;-91
2022/08/26 16:14:56;;;;;;;;;;;;;;;;;;;;;
2022/08/26 16:40:27;;;;;;;17.20;15.90;;;;;;;;;;6219188;23;20445;-91
2022/08/26 16:42:54;;;;;;;7.53;6.88;;;;;;;;;;6220580;23;20420;-89
2022/08/26 16:45:27;;;;;;;6.10;5.60;;;;;;;;;;6227495;23;20368;-91
2022/08/26 16:50:30;;;;;;;8.38;5.88;;;;;;;;;;6247488;22;20421;-87
2022/08/26 16:53:01;;;;;;;7.55;6.60;;;;;;;;;;6245540;22;20368;-91
2022/08/26 16:56:06;;;;;;;;;;;;;;;;;;;;;
2022/08/26 16:58:52;;;;;;;9.60;6.55;;;;;;;;;;6289118;22;20348;-91
2022/08/26 17:01:20;;;;;;;5.57;4.95;;;;;;;;;;6282542;22;20432;-91
2022/08/26 17:06:37;;;;;;;5.22;4.82;;;;;;;;;;6282139;22;20391;-89
2022/08/26 17:09:09;;;;;;;5.60;5.00;;;;;;;;;;6254175;22;20400;-91
2022/08/26 17:11:46;;;;;;;4.72;4.43;;;;;;;;;;6249107;22;20365;-91
2022/08/26 17:14:12;;;;;;;4.40;4.00;;;;;;;;;;6261643;22;20792;-91
2022/08/26 17:16:52;;;;;;;;;;;;;;;;;;;;;
2022/08/26 17:19:32;;;;;;;3.60;3.50;;;;;;;;;;6277371;22;20380;-91
2022/08/26 17:22:01;;;;;;;3.70;3.40;;;;;;;;;;6247022;22;20857;-88
2022/08/26 17:24:30;;;;;;;4.00;3.70;;;;;;;;;;6286444;22;20352;-89
2022/08/26 17:26:58;;;;;;;6.00;4.43;;;;;;;;;;6284024;22;20337;-91
2022/08/26 17:29:36;;;;;;;5.65;4.15;;;;;;;;;;6248831;22;20360;-91
2022/08/26 17:32:02;;;;;;;4.00;3.80;;;;;;;;;;6267103;22;20365;-88
2022/08/26 17:34:29;;;;;;;6.28;4.05;;;;;;;;;;6246014;22;20368;-90
2022/08/26 17:36:55;;;;;;;4.97;4.47;;;;;;;;;;6243038;22;20348;-91
2022/08/26 17:39:21;;;;;;;4.22;3.92;;;;;;;;;;6244863;22;20361;-89
2022/08/26 17:41:47;;;;;;;9.88;8.88;;;;;;;;;;6269371;22;20337;-88
2022/08/26 17:44:13;;;;;;;4.18;3.88;;;;;;;;;;6264961;22;20411;-87
2022/08/26 17:46:39;;;;;;;5.65;3.80;;;;;;;;;;6239116;22;20421;-87
2022/08/26 17:49:07;;;;;;;4.90;4.50;;;;;;;;;;6236964;22;20407;-87
2022/08/26 17:51:33;;;;;;;7.60;6.60;;;;;;;;;;6248141;22;20422;-89
2022/08/26 17:53:59;;;;;;;3.90;3.70;;;;;;;;;;6272931;22;20403;-90
2022/08/26 17:56:26;;;;;;;3.90;3.60;;;;;;;;;;6277662;22;20406;-91
2022/08/26 17:58:54;;;;;;;4.47;4.18;;;;;;;;;;6276634;22;20370;-88
2022/08/26 18:01:20;;;;;;;5.63;4.80;;;;;;;;;;6241921;22;20360;-91
2022/08/26 18:03:49;;;;;;;5.00;4.60;;;;;;;;;;6247858;22;20407;-90
2022/08/26 18:06:16;;;;;;;7.43;5.85;;;;;;;;;;6248329;22;20372;-90
2022/08/26 18:08:43;;;;;;;5.60;5.10;;;;;;;;;;6250618;22;20403;-91
2022/08/26 18:11:13;;;;;;;5.60;5.30;;;;;;;;;;6262905;22;20348;-94
2022/08/26 18:13:46;;;;;;;9.55;8.55;;;;;;;;;;6298746;22;20371;-94
2022/08/26 18:27:17;;;;;;;5.30;4.80;;;;;;;;;;6187393;22;20393;-90
2022/08/26 18:29:47;;;;;;;5.50;4.70;;;;;;;;;;6208154;23;20359;-93
2022/08/26 18:34:52;;;;;;;5.13;4.72;;;;;;;;;;6204441;23;20392;-91
2022/08/26 18:37:22;;;;;;;4.50;4.20;;;;;;;;;;6225680;22;20516;-92
2022/08/26 18:39:49;;;;;;;5.07;4.78;;;;;;;;;;6231915;23;20382;-93
2022/08/26 18:42:16;;;;;;;4.63;4.30;;;;;;;;;;6239414;23;20382;-89
2022/08/26 18:45:06;;;;;;;5.03;4.60;;;;;;;;;;6217607;22;20403;-91
2022/08/26 18:47:33;;;;;;;6.85;4.78;;;;;;;;;;6219939;23;20392;-90
2022/08/26 18:50:00;;;;;;;5.75;4.20;;;;;;;;;;6207740;23;20364;-89
2022/08/26 18:52:42;;;;;;;5.35;4.85;;;;;;;;;;6212306;23;20367;-91
2022/08/26 19:02:58;;;;;;;5.00;4.60;;;;;;;;;;6180994;22;20537;-90
2022/08/26 19:06:15;;;;;;;7.15;5.43;;;;;;;;;;6245672;23;20361;-90
2022/08/26 19:08:53;;;;;;;4.35;3.95;;;;;;;;;;6184867;23;20420;-91
2022/08/26 19:13:55;;;;;;;6.20;3.70;;;;;;;;;;6232096;22;20509;-88
2022/08/26 19:20:02;;;;;;;3.60;3.40;;;;;;;;;;6154286;23;20459;-91
2022/08/26 19:22:53;;;;;;;4.10;3.90;;;;;;;;;;6159812;23;20389;-90
2022/08/26 23:58:55;;;;;;;14.30;13.00;;;;;;;;;;6182153;23;20794;-93
